This is the latest recevied weather packets stored in our database for station/object KA2FNK. If no packets are shown the sender has not sent any weather packets the latest 1 day(s).
| Time | Temp. | Humidity | Pressure | Rain* | Wind** | Luminosity | Snow |
|---|---|---|---|---|---|---|---|
| 1836274691 | 21.11° C | 79% | 1017 hPa | 0 mm | 0 m/s | - | - |
| 1836274543 | 20.56° C | 80% | 1017.1 hPa | 0 mm | 0 m/s | - | - |
| 1836274390 | 21.11° C | 78% | 1017.2 hPa | 0 mm | 0 m/s | - | - |
| 1836274242 | 21.11° C | 80% | 1017.1 hPa | 0 mm | 0 m/s | - | - |
| 1836274089 | 21.11° C | 76% | 1017.1 hPa | 0 mm | 0 m/s | - | - |
| 1778052125 | 7.78° C | 85% | 1013.7 hPa | 0 mm | 0 m/s | - | - |
| 1778051824 | 7.78° C | 85% | 1013.7 hPa | 0 mm | 0 m/s | - | - |
| 1778051523 | 7.78° C | 85% | 1013.8 hPa | 0 mm | 0.45 m/s, 222° | - | - |
| 1778051222 | 7.78° C | 84% | 1014 hPa | 0 mm | 0 m/s | - | - |
| 1778050921 | 7.78° C | 83% | 1014.1 hPa | 0 mm | 0 m/s | - | - |
| 1778050620 | 7.78° C | 83% | 1014.1 hPa | 0 mm | 0 m/s | - | - |
| 1778050319 | 7.78° C | 83% | 1014.3 hPa | 0 mm | 0.89 m/s, 106° | - | - |
| 1778050018 | 7.78° C | 83% | 1014.5 hPa | 0 mm | 0 m/s | - | - |
| 1778049717 | 7.78° C | 81% | 1014.7 hPa | 0 mm | 0 m/s | - | - |
| 1778049416 | 7.78° C | 82% | 1014.7 hPa | 0 mm | 0 m/s | - | - |
| 1778049115 | 7.22° C | 82% | 1014.8 hPa | 0 mm | 1.79 m/s, 36° | - | - |
| 1778048814 | 7.22° C | 83% | 1014.9 hPa | 0 mm | 0.45 m/s, 28° | - | - |
| 1778048513 | 7.78° C | 83% | 1015 hPa | 0 mm | 0 m/s | - | - |
| 1778048212 | 7.78° C | 82% | 1015 hPa | 0 mm | 0 m/s | - | - |
| 1778047911 | 7.78° C | 82% | 1015.2 hPa | 0 mm | 0.89 m/s, 11° | - | - |
| 1778047610 | 7.78° C | 82% | 1015.2 hPa | 0 mm | 0.45 m/s, 345° | - | - |
| 1778047309 | 7.78° C | 81% | 1015.2 hPa | 0 mm | 0.89 m/s, 323° | - | - |
| 1778047008 | 7.78° C | 81% | 1014.9 hPa | 0 mm | 0.89 m/s, 320° | - | - |
| 1778046707 | 7.78° C | 81% | 1014.8 hPa | 0 mm | 1.34 m/s, 350° | - | - |
| 1778046406 | 7.78° C | 80% | 1014.8 hPa | 0 mm | 0.89 m/s, 350° | - | - |
* Rain latest hour (hover to see other rain measurements)
** Current wind speed in m/s (hover to see current wind gust speed)